sensor_id;sensor_type;location;lat;lon;timestamp;P1;durP1;ratioP1;P2;durP2;ratioP2
50066;SDS011;35952;52.524;13.340;2023-02-28T00:00:34;9.23;;;5.15;;
50066;SDS011;35952;52.524;13.340;2023-02-28T00:03:00;6.88;;;5.05;;
50066;SDS011;35952;52.524;13.340;2023-02-28T00:05:27;6.87;;;4.53;;
50066;SDS011;35952;52.524;13.340;2023-02-28T00:07:53;4.63;;;4.15;;
50066;SDS011;35952;52.524;13.340;2023-02-28T00:10:20;5.53;;;4.47;;
50066;SDS011;35952;52.524;13.340;2023-02-28T00:12:48;8.02;;;4.78;;
50066;SDS011;35952;52.524;13.340;2023-02-28T00:15:14;4.70;;;3.93;;
50066;SDS011;35952;52.524;13.340;2023-02-28T00:17:40;7.50;;;5.07;;
50066;SDS011;35952;52.524;13.340;2023-02-28T00:20:06;5.27;;;3.93;;
50066;SDS011;35952;52.524;13.340;2023-02-28T00:22:44;5.45;;;4.57;;
50066;SDS011;35952;52.524;13.340;2023-02-28T00:25:11;4.70;;;3.80;;
50066;SDS011;35952;52.524;13.340;2023-02-28T00:27:39;5.05;;;4.25;;
50066;SDS011;35952;52.524;13.340;2023-02-28T00:30:08;7.23;;;4.57;;
50066;SDS011;35952;52.524;13.340;2023-02-28T00:32:36;7.60;;;4.10;;
50066;SDS011;35952;52.524;13.340;2023-02-28T00:35:02;11.97;;;4.97;;
50066;SDS011;35952;52.524;13.340;2023-02-28T00:37:29;7.87;;;4.17;;
50066;SDS011;35952;52.524;13.340;2023-02-28T00:39:55;7.20;;;4.57;;
50066;SDS011;35952;52.524;13.340;2023-02-28T00:42:21;7.33;;;4.47;;
50066;SDS011;35952;52.524;13.340;2023-02-28T00:47:24;4.53;;;4.13;;
50066;SDS011;35952;52.524;13.340;2023-02-28T00:49:49;8.13;;;4.33;;
50066;SDS011;35952;52.524;13.340;2023-02-28T00:52:15;4.70;;;3.87;;
50066;SDS011;35952;52.524;13.340;2023-02-28T00:54:40;10.70;;;5.20;;
50066;SDS011;35952;52.524;13.340;2023-02-28T00:57:06;5.13;;;4.60;;
50066;SDS011;35952;52.524;13.340;2023-02-28T00:59:31;6.23;;;5.00;;
50066;SDS011;35952;52.524;13.340;2023-02-28T01:01:57;5.63;;;4.20;;
50066;SDS011;35952;52.524;13.340;2023-02-28T01:04:22;6.10;;;4.87;;
50066;SDS011;35952;52.524;13.340;2023-02-28T01:06:48;7.53;;;4.90;;
50066;SDS011;35952;52.524;13.340;2023-02-28T01:09:13;10.23;;;5.10;;
50066;SDS011;35952;52.524;13.340;2023-02-28T01:11:39;5.60;;;4.87;;
50066;SDS011;35952;52.524;13.340;2023-02-28T01:14:06;8.03;;;5.03;;
50066;SDS011;35952;52.524;13.340;2023-02-28T01:16:32;10.30;;;5.00;;
50066;SDS011;35952;52.524;13.340;2023-02-28T01:18:57;6.50;;;5.17;;
50066;SDS011;35952;52.524;13.340;2023-02-28T01:21:23;7.60;;;4.40;;
50066;SDS011;35952;52.524;13.340;2023-02-28T01:23:49;5.53;;;4.67;;
50066;SDS011;35952;52.524;13.340;2023-02-28T01:26:17;7.70;;;5.20;;
50066;SDS011;35952;52.524;13.340;2023-02-28T01:28:45;7.25;;;4.78;;
50066;SDS011;35952;52.524;13.340;2023-02-28T01:31:11;8.23;;;5.07;;
50066;SDS011;35952;52.524;13.340;2023-02-28T01:33:36;5.00;;;4.50;;
50066;SDS011;35952;52.524;13.340;2023-02-28T01:36:04;6.43;;;4.60;;
50066;SDS011;35952;52.524;13.340;2023-02-28T01:38:31;8.10;;;4.47;;
50066;SDS011;35952;52.524;13.340;2023-02-28T01:40:57;8.55;;;4.97;;
50066;SDS011;35952;52.524;13.340;2023-02-28T01:45:51;5.97;;;5.23;;
50066;SDS011;35952;52.524;13.340;2023-02-28T01:48:18;6.72;;;4.68;;
50066;SDS011;35952;52.524;13.340;2023-02-28T01:50:46;6.63;;;4.83;;
50066;SDS011;35952;52.524;13.340;2023-02-28T01:53:13;7.70;;;4.73;;
50066;SDS011;35952;52.524;13.340;2023-02-28T01:55:48;9.00;;;4.93;;
50066;SDS011;35952;52.524;13.340;2023-02-28T01:58:16;11.90;;;5.37;;
50066;SDS011;35952;52.524;13.340;2023-02-28T02:00:42;10.87;;;4.97;;
50066;SDS011;35952;52.524;13.340;2023-02-28T02:03:09;7.33;;;4.40;;
50066;SDS011;35952;52.524;13.340;2023-02-28T02:05:39;7.23;;;4.57;;
50066;SDS011;35952;52.524;13.340;2023-02-28T02:08:06;6.13;;;4.63;;
50066;SDS011;35952;52.524;13.340;2023-02-28T02:10:36;7.50;;;5.15;;
50066;SDS011;35952;52.524;13.340;2023-02-28T02:15:39;8.03;;;4.67;;
50066;SDS011;35952;52.524;13.340;2023-02-28T02:18:22;6.85;;;4.93;;
50066;SDS011;35952;52.524;13.340;2023-02-28T02:23:59;6.47;;;4.50;;
50066;SDS011;35952;52.524;13.340;2023-02-28T02:29:42;6.70;;;4.90;;
50066;SDS011;35952;52.524;13.340;2023-02-28T02:35:18;5.93;;;4.65;;
50066;SDS011;35952;52.524;13.340;2023-02-28T02:40:33;8.65;;;4.00;;
50066;SDS011;35952;52.524;13.340;2023-02-28T02:43:08;7.82;;;5.90;;
50066;SDS011;35952;52.524;13.340;2023-02-28T02:45:45;6.72;;;4.88;;
50066;SDS011;35952;52.524;13.340;2023-02-28T02:48:17;7.55;;;4.93;;
50066;SDS011;35952;52.524;13.340;2023-02-28T02:50:48;8.02;;;5.40;;
50066;SDS011;35952;52.524;13.340;2023-02-28T02:53:20;7.18;;;5.30;;
50066;SDS011;35952;52.524;13.340;2023-02-28T02:55:51;6.10;;;5.00;;
50066;SDS011;35952;52.524;13.340;2023-02-28T02:58:19;7.68;;;5.50;;
50066;SDS011;35952;52.524;13.340;2023-02-28T03:00:50;5.85;;;5.22;;
50066;SDS011;35952;52.524;13.340;2023-02-28T03:03:19;7.15;;;4.97;;
50066;SDS011;35952;52.524;13.340;2023-02-28T03:05:53;6.93;;;5.63;;
50066;SDS011;35952;52.524;13.340;2023-02-28T03:08:19;8.95;;;5.35;;
50066;SDS011;35952;52.524;13.340;2023-02-28T03:10:46;10.23;;;5.70;;
50066;SDS011;35952;52.524;13.340;2023-02-28T03:19:23;6.63;;;5.50;;
50066;SDS011;35952;52.524;13.340;2023-02-28T03:24:58;7.93;;;5.57;;
50066;SDS011;35952;52.524;13.340;2023-02-28T03:27:36;6.60;;;5.63;;
50066;SDS011;35952;52.524;13.340;2023-02-28T03:30:26;8.63;;;6.00;;
50066;SDS011;35952;52.524;13.340;2023-02-28T03:33:16;9.23;;;6.10;;
50066;SDS011;35952;52.524;13.340;2023-02-28T03:35:55;9.10;;;5.63;;
50066;SDS011;35952;52.524;13.340;2023-02-28T03:41:03;7.00;;;5.30;;
50066;SDS011;35952;52.524;13.340;2023-02-28T03:43:38;9.07;;;5.50;;
50066;SDS011;35952;52.524;13.340;2023-02-28T03:46:09;8.32;;;6.00;;
50066;SDS011;35952;52.524;13.340;2023-02-28T03:48:44;10.48;;;5.45;;
50066;SDS011;35952;52.524;13.340;2023-02-28T03:51:14;8.60;;;5.50;;
50066;SDS011;35952;52.524;13.340;2023-02-28T03:53:44;9.25;;;6.40;;
50066;SDS011;35952;52.524;13.340;2023-02-28T03:56:17;6.65;;;5.70;;
50066;SDS011;35952;52.524;13.340;2023-02-28T04:03:56;11.40;;;7.90;;
50066;SDS011;35952;52.524;13.340;2023-02-28T04:06:22;7.97;;;5.63;;
50066;SDS011;35952;52.524;13.340;2023-02-28T04:08:49;8.77;;;5.95;;
50066;SDS011;35952;52.524;13.340;2023-02-28T04:11:27;8.68;;;5.78;;
50066;SDS011;35952;52.524;13.340;2023-02-28T04:14:00;11.43;;;6.60;;
50066;SDS011;35952;52.524;13.340;2023-02-28T04:16:27;8.40;;;6.38;;
50066;SDS011;35952;52.524;13.340;2023-02-28T04:18:54;8.40;;;5.82;;
50066;SDS011;35952;52.524;13.340;2023-02-28T04:21:26;5.82;;;5.05;;
50066;SDS011;35952;52.524;13.340;2023-02-28T04:24:06;5.82;;;5.10;;
50066;SDS011;35952;52.524;13.340;2023-02-28T04:26:34;7.05;;;6.20;;
50066;SDS011;35952;52.524;13.340;2023-02-28T04:29:01;8.10;;;6.03;;
50066;SDS011;35952;52.524;13.340;2023-02-28T04:31:28;6.60;;;5.80;;
50066;SDS011;35952;52.524;13.340;2023-02-28T04:33:54;6.67;;;5.83;;
50066;SDS011;35952;52.524;13.340;2023-02-28T04:36:19;7.23;;;5.87;;
50066;SDS011;35952;52.524;13.340;2023-02-28T04:38:45;8.57;;;6.17;;
50066;SDS011;35952;52.524;13.340;2023-02-28T04:41:12;7.80;;;6.20;;
50066;SDS011;35952;52.524;13.340;2023-02-28T04:43:38;6.78;;;5.65;;
50066;SDS011;35952;52.524;13.340;2023-02-28T04:46:04;7.37;;;6.47;;
50066;SDS011;35952;52.524;13.340;2023-02-28T04:48:31;9.52;;;6.32;;
50066;SDS011;35952;52.524;13.340;2023-02-28T04:51:03;13.05;;;6.50;;
50066;SDS011;35952;52.524;13.340;2023-02-28T04:53:30;6.03;;;5.53;;
50066;SDS011;35952;52.524;13.340;2023-02-28T04:55:56;7.18;;;6.45;;
50066;SDS011;35952;52.524;13.340;2023-02-28T04:58:22;9.70;;;7.20;;
50066;SDS011;35952;52.524;13.340;2023-02-28T05:00:49;7.20;;;5.95;;
50066;SDS011;35952;52.524;13.340;2023-02-28T05:03:18;7.63;;;5.82;;
50066;SDS011;35952;52.524;13.340;2023-02-28T05:05:45;7.00;;;5.70;;
50066;SDS011;35952;52.524;13.340;2023-02-28T05:08:11;7.97;;;6.30;;
50066;SDS011;35952;52.524;13.340;2023-02-28T05:10:36;11.73;;;7.43;;
50066;SDS011;35952;52.524;13.340;2023-02-28T05:13:02;8.93;;;5.60;;
50066;SDS011;35952;52.524;13.340;2023-02-28T05:15:28;8.27;;;6.00;;
50066;SDS011;35952;52.524;13.340;2023-02-28T05:17:53;7.63;;;6.10;;
50066;SDS011;35952;52.524;13.340;2023-02-28T05:20:19;13.00;;;6.90;;
50066;SDS011;35952;52.524;13.340;2023-02-28T05:22:46;12.18;;;6.93;;
50066;SDS011;35952;52.524;13.340;2023-02-28T05:25:12;9.57;;;7.30;;
50066;SDS011;35952;52.524;13.340;2023-02-28T05:27:40;12.63;;;7.10;;
50066;SDS011;35952;52.524;13.340;2023-02-28T05:30:06;9.50;;;7.00;;
50066;SDS011;35952;52.524;13.340;2023-02-28T05:32:35;12.00;;;7.95;;
50066;SDS011;35952;52.524;13.340;2023-02-28T05:35:01;13.45;;;7.80;;
50066;SDS011;35952;52.524;13.340;2023-02-28T05:37:27;12.30;;;7.00;;
50066;SDS011;35952;52.524;13.340;2023-02-28T05:39:53;11.80;;;6.57;;
50066;SDS011;35952;52.524;13.340;2023-02-28T05:42:18;10.83;;;6.60;;
50066;SDS011;35952;52.524;13.340;2023-02-28T05:44:44;10.10;;;7.00;;
50066;SDS011;35952;52.524;13.340;2023-02-28T05:47:09;10.13;;;7.20;;
50066;SDS011;35952;52.524;13.340;2023-02-28T05:49:35;10.60;;;7.57;;
50066;SDS011;35952;52.524;13.340;2023-02-28T05:52:00;9.77;;;6.67;;
50066;SDS011;35952;52.524;13.340;2023-02-28T05:54:26;10.10;;;7.47;;
50066;SDS011;35952;52.524;13.340;2023-02-28T05:56:51;11.40;;;6.30;;
50066;SDS011;35952;52.524;13.340;2023-02-28T05:59:17;11.20;;;6.90;;
50066;SDS011;35952;52.524;13.340;2023-02-28T06:01:43;12.27;;;7.53;;
50066;SDS011;35952;52.524;13.340;2023-02-28T06:04:13;13.25;;;7.68;;
50066;SDS011;35952;52.524;13.340;2023-02-28T06:06:44;9.40;;;7.47;;
50066;SDS011;35952;52.524;13.340;2023-02-28T06:09:11;12.07;;;8.27;;
50066;SDS011;35952;52.524;13.340;2023-02-28T06:11:37;9.38;;;7.03;;
50066;SDS011;35952;52.524;13.340;2023-02-28T06:14:02;14.97;;;7.83;;
50066;SDS011;35952;52.524;13.340;2023-02-28T06:16:29;10.60;;;7.20;;
50066;SDS011;35952;52.524;13.340;2023-02-28T06:18:57;8.50;;;6.20;;
50066;SDS011;35952;52.524;13.340;2023-02-28T06:21:24;11.55;;;7.55;;
50066;SDS011;35952;52.524;13.340;2023-02-28T06:23:49;10.27;;;6.97;;
50066;SDS011;35952;52.524;13.340;2023-02-28T06:26:15;9.47;;;7.47;;
50066;SDS011;35952;52.524;13.340;2023-02-28T06:28:41;18.13;;;8.03;;
50066;SDS011;35952;52.524;13.340;2023-02-28T06:31:10;13.73;;;8.40;;
50066;SDS011;35952;52.524;13.340;2023-02-28T06:33:39;9.40;;;8.15;;
50066;SDS011;35952;52.524;13.340;2023-02-28T06:36:05;10.80;;;7.50;;
50066;SDS011;35952;52.524;13.340;2023-02-28T06:38:32;8.60;;;7.10;;
50066;SDS011;35952;52.524;13.340;2023-02-28T06:40:58;16.93;;;9.30;;
50066;SDS011;35952;52.524;13.340;2023-02-28T06:43:25;10.50;;;8.38;;
50066;SDS011;35952;52.524;13.340;2023-02-28T06:45:57;9.65;;;7.75;;
50066;SDS011;35952;52.524;13.340;2023-02-28T06:48:24;14.30;;;11.25;;
50066;SDS011;35952;52.524;13.340;2023-02-28T06:50:52;14.18;;;8.73;;
50066;SDS011;35952;52.524;13.340;2023-02-28T06:53:25;18.95;;;8.13;;
50066;SDS011;35952;52.524;13.340;2023-02-28T06:55:51;10.20;;;7.87;;
50066;SDS011;35952;52.524;13.340;2023-02-28T06:58:16;14.13;;;8.27;;
50066;SDS011;35952;52.524;13.340;2023-02-28T07:00:45;13.70;;;10.50;;
50066;SDS011;35952;52.524;13.340;2023-02-28T07:03:11;10.18;;;8.90;;
50066;SDS011;35952;52.524;13.340;2023-02-28T07:05:38;10.90;;;8.25;;
50066;SDS011;35952;52.524;13.340;2023-02-28T07:08:04;15.43;;;9.95;;
50066;SDS011;35952;52.524;13.340;2023-02-28T07:10:31;15.77;;;9.73;;
50066;SDS011;35952;52.524;13.340;2023-02-28T07:12:57;14.18;;;9.88;;
50066;SDS011;35952;52.524;13.340;2023-02-28T07:15:23;12.97;;;7.27;;
50066;SDS011;35952;52.524;13.340;2023-02-28T07:17:49;18.17;;;9.90;;
50066;SDS011;35952;52.524;13.340;2023-02-28T07:20:15;14.10;;;8.97;;
50066;SDS011;35952;52.524;13.340;2023-02-28T07:22:41;14.40;;;10.30;;
50066;SDS011;35952;52.524;13.340;2023-02-28T07:25:06;17.13;;;8.23;;
50066;SDS011;35952;52.524;13.340;2023-02-28T07:27:35;15.82;;;9.32;;
50066;SDS011;35952;52.524;13.340;2023-02-28T07:30:00;13.07;;;8.30;;
50066;SDS011;35952;52.524;13.340;2023-02-28T07:32:28;14.30;;;10.32;;
50066;SDS011;35952;52.524;13.340;2023-02-28T07:34:54;15.77;;;9.93;;
50066;SDS011;35952;52.524;13.340;2023-02-28T07:37:20;16.40;;;10.45;;
50066;SDS011;35952;52.524;13.340;2023-02-28T07:39:45;14.70;;;10.07;;
50066;SDS011;35952;52.524;13.340;2023-02-28T07:42:11;11.80;;;8.63;;
50066;SDS011;35952;52.524;13.340;2023-02-28T07:44:38;14.98;;;9.05;;
50066;SDS011;35952;52.524;13.340;2023-02-28T07:47:08;11.27;;;9.73;;
50066;SDS011;35952;52.524;13.340;2023-02-28T07:49:38;13.95;;;9.07;;
50066;SDS011;35952;52.524;13.340;2023-02-28T07:52:04;14.13;;;9.38;;
50066;SDS011;35952;52.524;13.340;2023-02-28T07:54:31;13.73;;;7.85;;
50066;SDS011;35952;52.524;13.340;2023-02-28T07:56:57;6.25;;;5.15;;
50066;SDS011;35952;52.524;13.340;2023-02-28T07:59:23;6.33;;;5.60;;
50066;SDS011;35952;52.524;13.340;2023-02-28T08:01:49;8.97;;;4.77;;
50066;SDS011;35952;52.524;13.340;2023-02-28T08:04:15;7.82;;;4.90;;
50066;SDS011;35952;52.524;13.340;2023-02-28T08:06:41;7.68;;;4.00;;
50066;SDS011;35952;52.524;13.340;2023-02-28T08:09:06;5.30;;;4.27;;
50066;SDS011;35952;52.524;13.340;2023-02-28T08:11:32;4.03;;;3.60;;
50066;SDS011;35952;52.524;13.340;2023-02-28T08:13:58;8.37;;;4.53;;
50066;SDS011;35952;52.524;13.340;2023-02-28T08:16:23;3.40;;;3.10;;
50066;SDS011;35952;52.524;13.340;2023-02-28T08:18:51;3.60;;;3.20;;
50066;SDS011;35952;52.524;13.340;2023-02-28T08:21:18;18.70;;;12.40;;
50066;SDS011;35952;52.524;13.340;2023-02-28T08:23:46;5.73;;;3.40;;
50066;SDS011;35952;52.524;13.340;2023-02-28T08:26:13;6.30;;;3.80;;
50066;SDS011;35952;52.524;13.340;2023-02-28T08:28:39;3.97;;;3.10;;
50066;SDS011;35952;52.524;13.340;2023-02-28T08:31:12;10.97;;;5.40;;
50066;SDS011;35952;52.524;13.340;2023-02-28T08:33:39;5.47;;;3.43;;
50066;SDS011;35952;52.524;13.340;2023-02-28T08:36:06;4.13;;;3.40;;
50066;SDS011;35952;52.524;13.340;2023-02-28T08:38:32;3.20;;;3.00;;
50066;SDS011;35952;52.524;13.340;2023-02-28T08:40:59;4.80;;;3.57;;
50066;SDS011;35952;52.524;13.340;2023-02-28T08:43:26;4.33;;;2.63;;
50066;SDS011;35952;52.524;13.340;2023-02-28T08:45:52;3.77;;;3.20;;
50066;SDS011;35952;52.524;13.340;2023-02-28T08:48:18;4.77;;;4.10;;
50066;SDS011;35952;52.524;13.340;2023-02-28T08:50:43;4.77;;;3.57;;
50066;SDS011;35952;52.524;13.340;2023-02-28T08:53:09;5.53;;;4.10;;
50066;SDS011;35952;52.524;13.340;2023-02-28T08:55:34;10.53;;;4.00;;
50066;SDS011;35952;52.524;13.340;2023-02-28T08:58:00;6.23;;;3.60;;
50066;SDS011;35952;52.524;13.340;2023-02-28T09:00:26;7.37;;;3.57;;
50066;SDS011;35952;52.524;13.340;2023-02-28T09:02:51;8.87;;;3.60;;
50066;SDS011;35952;52.524;13.340;2023-02-28T09:05:17;6.13;;;3.13;;
50066;SDS011;35952;52.524;13.340;2023-02-28T09:07:42;3.27;;;2.97;;
50066;SDS011;35952;52.524;13.340;2023-02-28T09:10:08;4.60;;;3.13;;
50066;SDS011;35952;52.524;13.340;2023-02-28T09:12:34;4.83;;;3.10;;
50066;SDS011;35952;52.524;13.340;2023-02-28T09:15:00;4.47;;;3.23;;
50066;SDS011;35952;52.524;13.340;2023-02-28T09:17:26;3.10;;;2.90;;
50066;SDS011;35952;52.524;13.340;2023-02-28T09:19:52;3.37;;;3.07;;
50066;SDS011;35952;52.524;13.340;2023-02-28T09:22:18;4.50;;;3.23;;
50066;SDS011;35952;52.524;13.340;2023-02-28T09:24:43;3.10;;;2.80;;
50066;SDS011;35952;52.524;13.340;2023-02-28T09:27:09;7.90;;;3.03;;
50066;SDS011;35952;52.524;13.340;2023-02-28T09:29:35;4.07;;;3.67;;
50066;SDS011;35952;52.524;13.340;2023-02-28T09:32:01;3.40;;;3.00;;
50066;SDS011;35952;52.524;13.340;2023-02-28T09:34:27;4.13;;;2.90;;
50066;SDS011;35952;52.524;13.340;2023-02-28T09:36:55;2.93;;;2.73;;
50066;SDS011;35952;52.524;13.340;2023-02-28T09:39:22;2.83;;;2.50;;
50066;SDS011;35952;52.524;13.340;2023-02-28T09:41:48;3.27;;;2.83;;
50066;SDS011;35952;52.524;13.340;2023-02-28T09:44:30;3.40;;;3.10;;
50066;SDS011;35952;52.524;13.340;2023-02-28T09:47:21;5.53;;;3.37;;
50066;SDS011;35952;52.524;13.340;2023-02-28T09:49:51;5.87;;;3.00;;
50066;SDS011;35952;52.524;13.340;2023-02-28T09:52:18;3.70;;;3.03;;
50066;SDS011;35952;52.524;13.340;2023-02-28T09:54:53;4.50;;;2.70;;
50066;SDS011;35952;52.524;13.340;2023-02-28T09:59:51;2.87;;;2.67;;
50066;SDS011;35952;52.524;13.340;2023-02-28T10:02:39;5.20;;;3.07;;
50066;SDS011;35952;52.524;13.340;2023-02-28T10:05:27;5.67;;;3.60;;
50066;SDS011;35952;52.524;13.340;2023-02-28T10:08:02;5.67;;;2.93;;
50066;SDS011;35952;52.524;13.340;2023-02-28T10:13:25;3.73;;;2.70;;
50066;SDS011;35952;52.524;13.340;2023-02-28T10:16:34;4.80;;;2.93;;
50066;SDS011;35952;52.524;13.340;2023-02-28T10:18:54;4.53;;;2.90;;
50066;SDS011;35952;52.524;13.340;2023-02-28T10:21:33;3.97;;;3.20;;
50066;SDS011;35952;52.524;13.340;2023-02-28T10:24:30;4.07;;;3.20;;
50066;SDS011;35952;52.524;13.340;2023-02-28T10:27:14;8.93;;;3.33;;
50066;SDS011;35952;52.524;13.340;2023-02-28T10:29:43;5.60;;;3.63;;
50066;SDS011;35952;52.524;13.340;2023-02-28T10:32:18;8.00;;;3.60;;
50066;SDS011;35952;52.524;13.340;2023-02-28T10:34:50;6.10;;;3.70;;
50066;SDS011;35952;52.524;13.340;2023-02-28T10:37:22;3.00;;;2.80;;
50066;SDS011;35952;52.524;13.340;2023-02-28T10:39:47;6.10;;;3.03;;
50066;SDS011;35952;52.524;13.340;2023-02-28T10:42:20;3.53;;;3.20;;
50066;SDS011;35952;52.524;13.340;2023-02-28T10:45:10;6.30;;;3.67;;
50066;SDS011;35952;52.524;13.340;2023-02-28T10:47:41;4.87;;;3.60;;
50066;SDS011;35952;52.524;13.340;2023-02-28T10:55:59;5.10;;;3.10;;
50066;SDS011;35952;52.524;13.340;2023-02-28T10:58:29;3.33;;;3.00;;
50066;SDS011;35952;52.524;13.340;2023-02-28T11:00:55;4.07;;;2.93;;
50066;SDS011;35952;52.524;13.340;2023-02-28T11:03:25;3.27;;;2.97;;
50066;SDS011;35952;52.524;13.340;2023-02-28T11:05:58;2.83;;;2.63;;
50066;SDS011;35952;52.524;13.340;2023-02-28T11:08:28;3.73;;;2.90;;
50066;SDS011;35952;52.524;13.340;2023-02-28T11:10:55;4.80;;;3.63;;
50066;SDS011;35952;52.524;13.340;2023-02-28T11:13:33;5.00;;;4.50;;
50066;SDS011;35952;52.524;13.340;2023-02-28T11:16:00;7.40;;;3.73;;
50066;SDS011;35952;52.524;13.340;2023-02-28T11:18:30;8.13;;;4.03;;
50066;SDS011;35952;52.524;13.340;2023-02-28T11:21:29;5.93;;;4.23;;
50066;SDS011;35952;52.524;13.340;2023-02-28T11:24:02;3.60;;;3.30;;
50066;SDS011;35952;52.524;13.340;2023-02-28T11:26:41;6.27;;;3.93;;
50066;SDS011;35952;52.524;13.340;2023-02-28T11:29:10;3.17;;;2.97;;
50066;SDS011;35952;52.524;13.340;2023-02-28T11:31:39;7.53;;;4.47;;
50066;SDS011;35952;52.524;13.340;2023-02-28T11:34:21;3.90;;;3.50;;
50066;SDS011;35952;52.524;13.340;2023-02-28T11:36:49;4.53;;;3.10;;
50066;SDS011;35952;52.524;13.340;2023-02-28T11:39:18;3.00;;;2.77;;
50066;SDS011;35952;52.524;13.340;2023-02-28T11:46:52;4.97;;;3.20;;
50066;SDS011;35952;52.524;13.340;2023-02-28T11:52:01;7.90;;;3.30;;
50066;SDS011;35952;52.524;13.340;2023-02-28T11:54:46;9.03;;;6.13;;
50066;SDS011;35952;52.524;13.340;2023-02-28T11:57:30;4.27;;;3.87;;
50066;SDS011;35952;52.524;13.340;2023-02-28T12:00:19;7.73;;;4.30;;
50066;SDS011;35952;52.524;13.340;2023-02-28T12:03:02;6.53;;;4.00;;
50066;SDS011;35952;52.524;13.340;2023-02-28T12:11:59;5.43;;;4.30;;
50066;SDS011;35952;52.524;13.340;2023-02-28T12:26:11;7.13;;;3.57;;
50066;SDS011;35952;52.524;13.340;2023-02-28T12:28:49;7.00;;;4.00;;
50066;SDS011;35952;52.524;13.340;2023-02-28T12:33:53;4.03;;;3.70;;
50066;SDS011;35952;52.524;13.340;2023-02-28T12:36:25;10.33;;;4.50;;
50066;SDS011;35952;52.524;13.340;2023-02-28T12:38:54;5.40;;;4.10;;
50066;SDS011;35952;52.524;13.340;2023-02-28T12:41:33;5.60;;;3.63;;
50066;SDS011;35952;52.524;13.340;2023-02-28T12:44:06;8.90;;;4.60;;
50066;SDS011;35952;52.524;13.340;2023-02-28T12:46:37;5.07;;;4.60;;
50066;SDS011;35952;52.524;13.340;2023-02-28T12:49:17;4.00;;;3.60;;
50066;SDS011;35952;52.524;13.340;2023-02-28T12:51:49;6.73;;;4.53;;
50066;SDS011;35952;52.524;13.340;2023-02-28T12:54:19;5.97;;;3.87;;
50066;SDS011;35952;52.524;13.340;2023-02-28T12:59:51;6.17;;;4.10;;
50066;SDS011;35952;52.524;13.340;2023-02-28T13:05:01;6.60;;;4.83;;
50066;SDS011;35952;52.524;13.340;2023-02-28T13:10:56;7.93;;;4.90;;
50066;SDS011;35952;52.524;13.340;2023-02-28T13:13:25;7.67;;;3.93;;
50066;SDS011;35952;52.524;13.340;2023-02-28T13:16:05;7.17;;;4.50;;
50066;SDS011;35952;52.524;13.340;2023-02-28T13:21:02;5.50;;;4.07;;
50066;SDS011;35952;52.524;13.340;2023-02-28T13:23:36;4.07;;;3.73;;
50066;SDS011;35952;52.524;13.340;2023-02-28T13:26:02;4.03;;;3.53;;
50066;SDS011;35952;52.524;13.340;2023-02-28T13:31:15;5.33;;;4.17;;
50066;SDS011;35952;52.524;13.340;2023-02-28T13:38:46;8.47;;;4.20;;
50066;SDS011;35952;52.524;13.340;2023-02-28T13:46:27;7.57;;;3.83;;
50066;SDS011;35952;52.524;13.340;2023-02-28T13:48:53;7.47;;;5.90;;
50066;SDS011;35952;52.524;13.340;2023-02-28T14:00:41;4.47;;;3.53;;
50066;SDS011;35952;52.524;13.340;2023-02-28T14:05:28;6.70;;;4.50;;
50066;SDS011;35952;52.524;13.340;2023-02-28T14:07:58;7.53;;;4.13;;
50066;SDS011;35952;52.524;13.340;2023-02-28T14:10:30;4.50;;;3.63;;
50066;SDS011;35952;52.524;13.340;2023-02-28T14:13:02;7.60;;;3.90;;
50066;SDS011;35952;52.524;13.340;2023-02-28T14:20:42;4.43;;;3.80;;
50066;SDS011;35952;52.524;13.340;2023-02-28T14:23:14;7.27;;;4.83;;
50066;SDS011;35952;52.524;13.340;2023-02-28T14:25:44;7.30;;;4.10;;
50066;SDS011;35952;52.524;13.340;2023-02-28T14:28:47;8.30;;;5.37;;
50066;SDS011;35952;52.524;13.340;2023-02-28T14:31:29;8.00;;;5.70;;
50066;SDS011;35952;52.524;13.340;2023-02-28T14:36:57;6.27;;;5.07;;
50066;SDS011;35952;52.524;13.340;2023-02-28T14:39:25;7.13;;;6.00;;
50066;SDS011;35952;52.524;13.340;2023-02-28T14:41:52;4.03;;;3.63;;
50066;SDS011;35952;52.524;13.340;2023-02-28T14:44:19;4.30;;;3.50;;
50066;SDS011;35952;52.524;13.340;2023-02-28T14:46:51;7.50;;;4.33;;
50066;SDS011;35952;52.524;13.340;2023-02-28T14:49:29;4.00;;;3.60;;
50066;SDS011;35952;52.524;13.340;2023-02-28T14:52:07;5.40;;;3.50;;
50066;SDS011;35952;52.524;13.340;2023-02-28T14:54:41;4.53;;;3.70;;
50066;SDS011;35952;52.524;13.340;2023-02-28T14:57:22;4.20;;;3.80;;
50066;SDS011;35952;52.524;13.340;2023-02-28T15:00:42;7.20;;;4.10;;
50066;SDS011;35952;52.524;13.340;2023-02-28T15:02:53;5.93;;;4.53;;
50066;SDS011;35952;52.524;13.340;2023-02-28T15:05:25;6.70;;;5.03;;
50066;SDS011;35952;52.524;13.340;2023-02-28T15:08:03;4.50;;;4.10;;
50066;SDS011;35952;52.524;13.340;2023-02-28T15:10:31;6.10;;;4.37;;
50066;SDS011;35952;52.524;13.340;2023-02-28T15:13:02;4.43;;;3.70;;
50066;SDS011;35952;52.524;13.340;2023-02-28T15:18:07;5.93;;;4.57;;
50066;SDS011;35952;52.524;13.340;2023-02-28T15:20:40;7.00;;;5.60;;
50066;SDS011;35952;52.524;13.340;2023-02-28T15:23:09;6.00;;;4.27;;
50066;SDS011;35952;52.524;13.340;2023-02-28T15:25:35;5.10;;;3.93;;
50066;SDS011;35952;52.524;13.340;2023-02-28T15:28:01;4.40;;;4.00;;
50066;SDS011;35952;52.524;13.340;2023-02-28T15:30:29;5.37;;;4.30;;
50066;SDS011;35952;52.524;13.340;2023-02-28T15:35:43;5.57;;;5.07;;
50066;SDS011;35952;52.524;13.340;2023-02-28T15:38:24;8.20;;;6.20;;
50066;SDS011;35952;52.524;13.340;2023-02-28T15:43:27;7.10;;;4.43;;
50066;SDS011;35952;52.524;13.340;2023-02-28T15:45:58;5.87;;;4.00;;
50066;SDS011;35952;52.524;13.340;2023-02-28T15:48:51;6.37;;;4.07;;
50066;SDS011;35952;52.524;13.340;2023-02-28T15:53:57;4.63;;;4.23;;
50066;SDS011;35952;52.524;13.340;2023-02-28T15:56:27;6.00;;;4.40;;
50066;SDS011;35952;52.524;13.340;2023-02-28T15:58:56;14.23;;;4.57;;
50066;SDS011;35952;52.524;13.340;2023-02-28T16:01:31;7.90;;;3.57;;
50066;SDS011;35952;52.524;13.340;2023-02-28T16:04:05;6.10;;;4.50;;
50066;SDS011;35952;52.524;13.340;2023-02-28T16:06:39;6.17;;;4.50;;
50066;SDS011;35952;52.524;13.340;2023-02-28T16:09:10;6.77;;;4.90;;
50066;SDS011;35952;52.524;13.340;2023-02-28T16:11:45;6.20;;;4.57;;
50066;SDS011;35952;52.524;13.340;2023-02-28T16:14:15;5.07;;;3.70;;
50066;SDS011;35952;52.524;13.340;2023-02-28T16:16:48;7.57;;;3.90;;
50066;SDS011;35952;52.524;13.340;2023-02-28T16:19:16;5.40;;;3.87;;
50066;SDS011;35952;52.524;13.340;2023-02-28T16:21:42;9.90;;;6.20;;
50066;SDS011;35952;52.524;13.340;2023-02-28T16:24:08;8.83;;;6.23;;
50066;SDS011;35952;52.524;13.340;2023-02-28T16:26:33;8.93;;;5.67;;
50066;SDS011;35952;52.524;13.340;2023-02-28T16:29:02;5.10;;;4.40;;
50066;SDS011;35952;52.524;13.340;2023-02-28T16:31:28;6.73;;;5.00;;
50066;SDS011;35952;52.524;13.340;2023-02-28T16:33:54;6.97;;;5.30;;
50066;SDS011;35952;52.524;13.340;2023-02-28T16:36:21;6.73;;;4.40;;
50066;SDS011;35952;52.524;13.340;2023-02-28T16:38:50;6.67;;;4.20;;
50066;SDS011;35952;52.524;13.340;2023-02-28T16:41:19;6.17;;;4.30;;
50066;SDS011;35952;52.524;13.340;2023-02-28T16:43:47;6.13;;;5.10;;
50066;SDS011;35952;52.524;13.340;2023-02-28T16:46:14;5.10;;;4.60;;
50066;SDS011;35952;52.524;13.340;2023-02-28T16:48:41;6.33;;;5.40;;
50066;SDS011;35952;52.524;13.340;2023-02-28T16:51:11;7.30;;;4.70;;
50066;SDS011;35952;52.524;13.340;2023-02-28T16:53:38;9.40;;;5.37;;
50066;SDS011;35952;52.524;13.340;2023-02-28T16:56:03;4.77;;;4.27;;